Time;durP1;ratioP1;P1;durP2;ratioP2;P2;SDS_P1;SDS_P2;PMS_P1;PMS_P2;Temp;Humidity;BMP_temperature;BMP_pressure;BME280_temperature;BME280_humidity;BME280_pressure;Samples;Min_cycle;Max_cycle;Signal;HPM_P1;HPM_P2
2023/04/23 00:01:40;;;;;;;3.47;2.53;;;;;;;14.01;80.34;97478.97;5071056;28;20224;-76
2023/04/23 00:04:08;;;;;;;2.50;2.30;;;;;;;14.04;80.72;97481.31;5070687;28;20241;-76
2023/04/23 00:06:35;;;;;;;4.00;2.77;;;;;;;14.07;80.04;97481.06;5070965;28;20580;-77
2023/04/23 00:09:06;;;;;;;3.13;2.40;;;;;;;14.04;79.89;97481.31;5070793;28;20202;-74
2023/04/23 00:11:33;;;;;;;3.30;2.60;;;;;;;14.04;80.10;97486.63;5070709;28;20206;-74
2023/04/23 00:14:00;;;;;;;3.00;2.20;;;;;;;14.04;79.91;97491.94;5071622;28;20225;-76
2023/04/23 00:16:27;;;;;;;3.00;2.27;;;;;;;14.02;80.62;97489.47;5074421;28;20213;-75
2023/04/23 00:18:54;;;;;;;2.80;2.13;;;;;;;14.03;80.63;97487.63;5074193;28;20230;-75
2023/04/23 00:21:20;;;;;;;3.13;2.43;;;;;;;14.06;80.41;97490.84;5073523;28;20577;-76
2023/04/23 00:23:47;;;;;;;2.77;2.03;;;;;;;14.08;79.56;97488.03;5074339;28;20237;-76
2023/04/23 00:26:17;;;;;;;5.63;2.60;;;;;;;14.09;79.80;97481.75;5074187;28;20316;-77
2023/04/23 00:28:43;;;;;;;3.27;2.33;;;;;;;14.06;79.16;97479.38;5074101;28;20255;-76
2023/04/23 00:31:10;;;;;;;3.87;2.47;;;;;;;14.11;79.12;97471.81;5073301;28;20210;-75
2023/04/23 00:33:37;;;;;;;2.50;2.10;;;;;;;14.05;80.31;97486.50;5074159;28;20560;-75
2023/04/23 00:36:04;;;;;;;2.63;2.20;;;;;;;14.08;80.73;97488.91;5074140;28;20216;-76
2023/04/23 00:38:30;;;;;;;4.23;2.30;;;;;;;14.03;82.40;97498.25;5073942;28;20233;-75
2023/04/23 00:40:57;;;;;;;3.70;2.60;;;;;;;13.95;84.79;97504.31;5073076;28;20706;-76
2023/04/23 00:43:25;;;;;;;2.70;2.20;;;;;;;13.91;84.46;97513.53;5073606;28;20257;-76
2023/04/23 00:45:51;;;;;;;2.93;2.40;;;;;;;13.89;85.88;97514.63;5074272;28;20394;-77
2023/04/23 00:48:18;;;;;;;3.33;2.20;;;;;;;13.82;89.22;97534.78;5073742;28;20209;-75
2023/04/23 00:50:44;;;;;;;4.33;2.67;;;;;;;13.74;89.72;97530.16;5073060;28;20210;-77
2023/04/23 00:53:11;;;;;;;3.37;2.37;;;;;;;13.71;89.93;97533.13;5073804;28;20210;-75
2023/04/23 00:55:37;;;;;;;4.47;2.90;;;;;;;13.66;91.37;97538.00;5073625;28;20576;-76
2023/04/23 00:58:05;;;;;;;4.80;2.50;;;;;;;13.62;91.87;97539.25;5073618;28;20359;-76
2023/04/23 01:00:39;;;;;;;3.30;2.47;;;;;;;13.54;94.58;97548.88;5072311;28;20210;-76
2023/04/23 01:03:05;;;;;;;3.87;2.53;;;;;;;13.49;94.34;97549.28;5073761;28;20295;-76
2023/04/23 01:05:32;;;;;;;3.57;2.40;;;;;;;13.47;96.10;97545.94;5073360;28;20240;-76
2023/04/23 01:07:59;;;;;;;3.87;2.73;;;;;;;13.42;96.32;97544.66;5073463;28;20213;-76
2023/04/23 01:10:26;;;;;;;4.73;2.47;;;;;;;13.40;96.96;97544.81;5072586;28;20205;-76
2023/04/23 01:12:53;;;;;;;2.97;2.67;;;;;;;13.39;97.64;97552.91;5073575;28;20213;-76
2023/04/23 01:15:19;;;;;;;3.70;2.43;;;;;;;13.37;98.31;97550.41;5073355;28;20247;-76
2023/04/23 01:17:47;;;;;;;4.63;2.93;;;;;;;13.38;98.79;97556.56;5073238;28;20220;-75
2023/04/23 01:20:14;;;;;;;3.40;2.40;;;;;;;13.36;97.88;97551.38;5072501;28;20625;-76
2023/04/23 01:22:42;;;;;;;2.93;2.63;;;;;;;13.32;99.61;97554.44;5073187;28;20214;-75
2023/04/23 01:25:09;;;;;;;3.27;2.90;;;;;;;13.30;100.00;97556.38;5072519;28;20227;-75
2023/04/23 01:27:36;;;;;;;3.80;2.70;;;;;;;13.29;100.00;97552.91;5072961;28;20219;-75
2023/04/23 01:30:04;;;;;;;4.00;2.50;;;;;;;13.28;100.00;97556.53;5072128;28;20584;-77
2023/04/23 01:32:32;;;;;;;4.43;3.27;;;;;;;13.30;98.87;97556.38;5072961;28;20287;-76
2023/04/23 01:34:58;;;;;;;5.97;3.30;;;;;;;13.24;98.23;97564.88;5072728;28;20243;-76
2023/04/23 01:37:26;;;;;;;3.23;2.90;;;;;;;13.25;98.47;97567.41;5072891;28;20598;-76
2023/04/23 01:39:54;;;;;;;4.40;3.20;;;;;;;13.23;99.54;97568.50;5071889;28;20560;-77
2023/04/23 01:42:22;;;;;;;4.10;3.00;;;;;;;13.22;100.00;97566.84;5072996;28;20221;-76
2023/04/23 01:44:48;;;;;;;3.10;2.80;;;;;;;13.21;100.00;97565.16;5087479;28;20225;-76
2023/04/23 01:47:15;;;;;;;4.43;3.27;;;;;;;13.19;100.00;97575.06;5095013;28;20338;-76
2023/04/23 01:49:42;;;;;;;4.70;3.60;;;;;;;13.19;100.00;97572.41;5090159;28;20214;-77
2023/04/23 01:52:08;;;;;;;5.03;3.73;;;;;;;13.17;100.00;97575.22;5072759;28;20214;-76
2023/04/23 01:54:35;;;;;;;5.40;3.73;;;;;;;13.16;100.00;97578.00;5072926;28;20240;-76
2023/04/23 01:57:03;;;;;;;4.40;3.40;;;;;;;13.10;100.00;97573.22;5072628;28;20210;-76
2023/04/23 01:59:29;;;;;;;4.23;3.33;;;;;;;13.04;100.00;97568.47;5071851;28;20686;-75
2023/04/23 02:01:56;;;;;;;4.53;3.60;;;;;;;13.04;100.00;97576.41;5072317;28;20208;-75
2023/04/23 02:04:22;;;;;;;3.60;3.30;;;;;;;13.01;100.00;97574.06;5072342;28;20248;-76
2023/04/23 02:06:50;;;;;;;5.57;3.67;;;;;;;13.00;100.00;97578.50;5072213;28;20239;-75
2023/04/23 02:09:17;;;;;;;3.63;3.27;;;;;;;12.99;100.00;97576.84;5071772;28;20206;-78
2023/04/23 02:11:43;;;;;;;3.50;3.07;;;;;;;12.99;100.00;97575.97;5072451;28;20221;-77
2023/04/23 02:14:11;;;;;;;3.50;3.20;;;;;;;12.94;100.00;97575.50;5072189;28;20237;-76
2023/04/23 02:16:38;;;;;;;5.97;3.70;;;;;;;12.82;100.00;97579.22;5072190;28;20211;-75
2023/04/23 02:19:05;;;;;;;5.10;3.30;;;;;;;12.73;100.00;97586.19;5071564;28;20244;-77
2023/04/23 02:21:32;;;;;;;4.83;3.43;;;;;;;12.66;100.00;97585.00;5071453;28;20218;-77
2023/04/23 02:23:58;;;;;;;5.73;3.77;;;;;;;12.62;100.00;97596.03;5071794;28;20232;-77
2023/04/23 02:26:26;;;;;;;3.40;3.03;;;;;;;12.58;100.00;97602.53;5071950;28;20207;-76
2023/04/23 02:28:52;;;;;;;5.87;3.73;;;;;;;12.53;100.00;97599.47;5071831;28;20200;-77
2023/04/23 02:31:20;;;;;;;5.97;3.27;;;;;;;12.55;100.00;97597.53;5070915;28;20588;-76
2023/04/23 02:36:16;;;;;;;4.07;2.90;;;;;;;12.52;100.00;97597.75;5070259;28;20219;-81
2023/04/23 02:38:44;;;;;;;5.17;3.03;;;;;;;12.49;100.00;97590.94;5071502;28;20234;-82
2023/04/23 02:41:11;;;;;;;3.17;2.63;;;;;;;12.43;100.00;97586.16;5070902;28;20249;-82
2023/04/23 02:43:37;;;;;;;3.20;2.90;;;;;;;12.39;100.00;97590.03;5071786;28;20211;-82
2023/04/23 02:46:07;;;;;;;3.53;2.77;;;;;;;12.34;100.00;97589.56;5071333;28;20238;-82
2023/04/23 02:48:37;;;;;;;3.83;2.77;;;;;;;12.29;100.00;97588.31;5071134;28;20203;-82
2023/04/23 02:51:05;;;;;;;3.33;2.70;;;;;;;12.27;100.00;97576.97;5071022;28;20208;-82
2023/04/23 02:53:31;;;;;;;4.17;2.83;;;;;;;12.23;100.00;97578.22;5071320;28;20273;-82
2023/04/23 02:55:58;;;;;;;3.60;2.90;;;;;;;12.19;100.00;97577.63;5071261;28;20232;-82
2023/04/23 02:58:25;;;;;;;3.80;3.00;;;;;;;12.12;100.00;97568.53;5071209;28;20561;-82
2023/04/23 03:00:52;;;;;;;3.97;3.03;;;;;;;12.07;100.00;97565.44;5070413;28;20208;-82
2023/04/23 03:03:18;;;;;;;3.93;3.27;;;;;;;12.03;100.00;97568.44;5071013;28;20211;-82
2023/04/23 03:05:47;;;;;;;3.20;2.77;;;;;;;11.98;100.00;97581.25;5071450;28;20231;-82
2023/04/23 03:08:13;;;;;;;2.93;2.57;;;;;;;11.92;100.00;97590.53;5070916;28;20204;-83
2023/04/23 03:10:40;;;;;;;2.67;2.47;;;;;;;11.92;100.00;97592.34;5070424;28;20217;-83
2023/04/23 03:13:06;;;;;;;2.80;2.60;;;;;;;11.91;100.00;97590.66;5071188;28;20218;-83
2023/04/23 03:15:33;;;;;;;4.03;2.73;;;;;;;11.87;100.00;97598.00;5070960;28;20238;-83
2023/04/23 03:18:00;;;;;;;3.13;2.80;;;;;;;11.80;100.00;97583.59;5071217;28;20580;-83
2023/04/23 03:20:26;;;;;;;3.17;2.87;;;;;;;11.76;100.00;97578.69;5070281;28;20322;-82
2023/04/23 03:22:54;;;;;;;3.20;2.90;;;;;;;11.71;100.00;97589.66;5071034;28;20751;-82
2023/04/23 03:25:23;;;;;;;3.27;2.70;;;;;;;11.70;100.00;97584.50;5071145;28;20234;-82
2023/04/23 03:27:49;;;;;;;3.50;3.00;;;;;;;11.69;100.00;97581.00;5070997;28;20215;-83
2023/04/23 03:30:16;;;;;;;4.37;3.30;;;;;;;11.69;100.00;97574.88;5070076;28;20218;-82
2023/04/23 03:32:42;;;;;;;4.30;3.17;;;;;;;11.65;100.00;97576.06;5070492;28;20743;-82
2023/04/23 03:35:09;;;;;;;3.50;3.20;;;;;;;11.63;100.00;97570.09;5070659;28;20239;-82
2023/04/23 03:37:36;;;;;;;4.67;2.83;;;;;;;11.61;100.00;97570.19;5070820;28;20215;-82
2023/04/23 03:40:06;;;;;;;4.70;3.50;;;;;;;11.58;100.00;97566.94;5069969;28;20323;-82
2023/04/23 03:42:33;;;;;;;3.63;3.33;;;;;;;11.56;100.00;97561.75;5070962;28;20331;-82
2023/04/23 03:44:59;;;;;;;4.17;3.40;;;;;;;11.56;100.00;97558.28;5070534;28;20227;-82
2023/04/23 03:47:26;;;;;;;3.87;3.00;;;;;;;11.54;100.00;97563.69;5070849;28;20211;-83
2023/04/23 03:49:53;;;;;;;3.40;2.97;;;;;;;11.53;100.00;97559.38;5072933;28;20203;-82
2023/04/23 03:52:19;;;;;;;3.23;2.90;;;;;;;11.56;100.00;97563.59;5074645;28;20568;-82
2023/04/23 03:54:46;;;;;;;4.80;2.83;;;;;;;11.59;100.00;97558.06;5074443;28;20785;-82
2023/04/23 03:57:15;;;;;;;5.30;3.50;;;;;;;11.58;100.00;97561.63;5074512;28;20305;-82
2023/04/23 03:59:41;;;;;;;3.73;3.33;;;;;;;11.59;100.00;97566.84;5073819;28;20332;-82
2023/04/23 04:02:08;;;;;;;3.47;2.87;;;;;;;11.57;100.00;97568.72;5074482;28;20209;-82
2023/04/23 04:04:35;;;;;;;3.70;3.40;;;;;;;11.55;100.00;97575.13;5074243;28;20232;-82
2023/04/23 04:07:01;;;;;;;4.50;3.43;;;;;;;11.52;100.00;97584.16;5074286;28;20215;-82
2023/04/23 04:09:28;;;;;;;4.07;3.03;;;;;;;11.50;100.00;97595.84;5073350;28;20211;-82
2023/04/23 04:11:55;;;;;;;5.30;2.87;;;;;;;11.47;100.00;97596.06;5074086;28;20208;-83
2023/04/23 04:14:23;;;;;;;4.50;3.53;;;;;;;11.45;100.00;97590.94;5073962;28;20223;-82
2023/04/23 04:16:50;;;;;;;4.10;3.37;;;;;;;11.47;100.00;97585.47;5074198;28;20203;-83
2023/04/23 04:19:16;;;;;;;4.13;3.00;;;;;;;11.46;100.00;97589.09;5073286;28;20816;-83
2023/04/23 04:21:43;;;;;;;3.20;2.90;;;;;;;11.45;100.00;97588.28;5073935;28;20218;-83
2023/04/23 04:24:10;;;;;;;3.80;3.00;;;;;;;11.39;100.00;97583.47;5073804;28;20239;-83
2023/04/23 04:26:36;;;;;;;3.50;3.03;;;;;;;11.37;100.00;97584.56;5073866;28;20242;-82
2023/04/23 04:29:03;;;;;;;3.10;2.80;;;;;;;11.29;100.00;97587.81;5073733;28;20207;-83
2023/04/23 04:31:31;;;;;;;3.07;2.77;;;;;;;11.27;100.00;97588.91;5073376;28;20691;-82
2023/04/23 04:33:58;;;;;;;4.57;3.47;;;;;;;11.20;100.00;97587.72;5073675;28;20221;-82
2023/04/23 04:36:26;;;;;;;3.50;3.07;;;;;;;11.17;100.00;97593.25;5073858;28;20216;-82
2023/04/23 04:38:52;;;;;;;3.70;3.00;;;;;;;11.15;100.00;97597.84;5073536;28;20208;-82
2023/04/23 04:41:20;;;;;;;4.37;3.43;;;;;;;11.16;100.00;97603.00;5072982;28;20298;-83
2023/04/23 04:43:47;;;;;;;4.57;3.10;;;;;;;11.19;100.00;97605.38;5073956;28;20207;-83
2023/04/23 04:46:14;;;;;;;4.37;3.97;;;;;;;11.21;100.00;97595.53;5073717;28;20294;-82
2023/04/23 04:48:42;;;;;;;3.20;2.90;;;;;;;11.24;100.00;97594.44;5073538;28;20214;-82
2023/04/23 04:51:08;;;;;;;4.47;3.20;;;;;;;11.29;100.00;97592.25;5072763;28;20218;-82
2023/04/23 04:53:35;;;;;;;3.97;2.93;;;;;;;11.29;100.00;97592.25;5073304;28;20216;-83
2023/04/23 04:56:01;;;;;;;4.30;3.17;;;;;;;11.30;100.00;97599.22;5073569;28;20242;-83
2023/04/23 04:58:28;;;;;;;5.07;3.23;;;;;;;11.30;100.00;97597.44;5073414;28;20494;-83
2023/04/23 05:00:55;;;;;;;3.20;2.90;;;;;;;11.26;100.00;97590.69;5071327;28;20231;-83
2023/04/23 05:03:21;;;;;;;4.90;2.93;;;;;;;11.30;100.00;97593.94;5073354;28;20221;-83
2023/04/23 05:05:49;;;;;;;4.13;3.33;;;;;;;11.31;100.00;97590.34;5073237;28;20228;-82
2023/04/23 05:08:16;;;;;;;3.30;3.00;;;;;;;11.33;100.00;97589.28;5073407;28;20206;-83
2023/04/23 05:10:45;;;;;;;2.97;2.67;;;;;;;11.39;100.00;97582.63;5072252;28;20302;-83
2023/04/23 05:13:12;;;;;;;3.53;3.10;;;;;;;11.48;100.00;97587.16;5073088;28;20219;-83
2023/04/23 05:15:38;;;;;;;5.20;2.90;;;;;;;11.54;100.00;97582.22;5072989;28;20247;-83
2023/04/23 05:18:06;;;;;;;2.70;2.50;;;;;;;11.60;100.00;97580.91;5072950;28;20203;-82
2023/04/23 05:20:38;;;;;;;4.37;2.60;;;;;;;11.64;100.00;97598.22;5072136;28;20231;-83
2023/04/23 05:23:06;;;;;;;3.17;2.40;;;;;;;11.73;100.00;97581.59;5073151;28;20226;-82
2023/04/23 05:25:33;;;;;;;2.07;1.87;;;;;;;11.85;100.00;97591.16;5073098;28;20239;-83
2023/04/23 05:27:59;;;;;;;2.60;2.33;;;;;;;11.97;100.00;97587.47;5072866;28;20214;-83
2023/04/23 05:30:26;;;;;;;2.67;2.30;;;;;;;12.13;100.00;97595.84;5071983;28;20204;-82
2023/04/23 05:32:53;;;;;;;2.40;2.20;;;;;;;12.21;100.00;97596.03;5072697;28;20695;-82
2023/04/23 05:35:21;;;;;;;2.43;1.90;;;;;;;12.30;100.00;97592.63;5072530;28;20242;-83
2023/04/23 05:37:47;;;;;;;2.30;2.10;;;;;;;12.42;100.00;97594.25;5072447;28;20208;-83
2023/04/23 05:40:15;;;;;;;2.47;1.90;;;;;;;12.50;100.00;97594.41;5071856;28;20237;-81
2023/04/23 05:42:42;;;;;;;2.50;2.30;;;;;;;12.50;100.00;97595.28;5072629;28;20305;-76
2023/04/23 05:45:09;;;;;;;2.50;1.87;;;;;;;12.49;100.00;97587.44;5072531;28;20227;-78
2023/04/23 05:47:36;;;;;;;2.30;2.03;;;;;;;12.46;100.00;97598.31;5072275;28;20575;-78
2023/04/23 05:50:02;;;;;;;3.40;1.90;;;;;;;12.39;100.00;97602.44;5071646;28;20219;-77
2023/04/23 05:52:30;;;;;;;2.50;2.00;;;;;;;12.37;100.00;97599.06;5072403;28;20211;-78
2023/04/23 05:54:56;;;;;;;2.70;2.00;;;;;;;12.37;100.00;97599.06;5072246;28;20244;-78
2023/04/23 05:57:25;;;;;;;1.80;1.70;;;;;;;12.37;100.00;97599.06;5072219;28;20579;-78
2023/04/23 05:59:51;;;;;;;2.57;2.20;;;;;;;12.45;100.00;97607.22;5071250;28;20326;-78
2023/04/23 06:02:18;;;;;;;2.07;1.83;;;;;;;12.57;100.00;97603.53;5070277;28;20214;-77
2023/04/23 06:04:44;;;;;;;1.73;1.63;;;;;;;12.70;100.00;97612.09;5069073;28;20248;-77
2023/04/23 06:07:11;;;;;;;2.03;1.73;;;;;;;12.80;100.00;97607.69;5069025;28;20215;-77
2023/04/23 06:09:38;;;;;;;1.80;1.70;;;;;;;12.88;100.00;97611.38;5068756;28;20210;-77
2023/04/23 06:12:04;;;;;;;2.37;1.87;;;;;;;13.04;100.00;97600.28;5071536;28;20219;-77
2023/04/23 06:14:32;;;;;;;2.67;2.20;;;;;;;13.22;100.00;97604.84;5071146;28;20228;-78
2023/04/23 06:16:59;;;;;;;2.10;1.90;;;;;;;13.28;100.00;97603.44;5067634;28;20555;-77
2023/04/23 06:19:26;;;;;;;2.17;1.90;;;;;;;13.29;100.00;97605.13;5067798;28;20252;-77
2023/04/23 06:21:53;;;;;;;1.60;1.50;;;;;;;13.32;100.00;97600.38;5069041;28;20214;-77
2023/04/23 06:24:20;;;;;;;1.73;1.60;;;;;;;13.38;100.00;97604.34;5071292;28;20234;-77
2023/04/23 06:26:46;;;;;;;1.80;1.70;;;;;;;13.42;100.00;97605.72;5071576;28;20213;-77
2023/04/23 06:29:13;;;;;;;2.00;1.80;;;;;;;13.47;100.00;97600.84;5068320;28;20212;-77
2023/04/23 06:31:41;;;;;;;1.80;1.70;;;;;;;13.47;100.00;97604.34;5068056;28;20696;-77
2023/04/23 06:34:08;;;;;;;2.17;1.97;;;;;;;13.47;100.00;97603.50;5067582;28;20300;-77
2023/04/23 06:36:34;;;;;;;2.23;2.03;;;;;;;13.51;100.00;97605.72;5070362;28;20214;-77
2023/04/23 06:39:01;;;;;;;2.40;1.97;;;;;;;13.54;100.00;97594.00;5071452;28;20270;-77
2023/04/23 06:41:27;;;;;;;2.03;1.83;;;;;;;13.58;100.00;97592.75;5069182;28;20229;-77
2023/04/23 06:43:54;;;;;;;1.90;1.80;;;;;;;13.68;100.00;97598.94;5068117;28;20209;-77
2023/04/23 06:46:20;;;;;;;2.00;1.80;;;;;;;13.76;100.00;97593.78;5068486;28;20210;-77
2023/04/23 06:48:48;;;;;;;2.00;1.83;;;;;;;13.84;100.00;97591.25;5066198;28;20209;-77
2023/04/23 06:51:15;;;;;;;1.83;1.63;;;;;;;13.92;100.00;97583.41;5069146;28;20569;-77
2023/04/23 06:53:42;;;;;;;1.47;1.33;;;;;;;13.99;100.00;97579.25;5070605;28;20305;-77
2023/04/23 06:56:08;;;;;;;2.13;1.30;;;;;;;14.10;100.00;97579.94;5068177;28;20215;-77
2023/04/23 06:58:35;;;;;;;1.33;1.20;;;;;;;14.20;100.00;97571.97;5067974;28;20214;-77
2023/04/23 07:01:03;;;;;;;1.33;1.20;;;;;;;14.26;100.00;97571.41;5067528;28;20237;-77
2023/04/23 07:03:30;;;;;;;2.10;1.27;;;;;;;14.33;100.00;97567.19;5070927;28;20207;-77
2023/04/23 07:05:58;;;;;;;1.40;1.30;;;;;;;14.40;100.00;97568.28;5070815;28;20275;-76
2023/04/23 07:08:25;;;;;;;1.93;1.33;;;;;;;14.45;100.00;97561.59;5068582;28;20221;-76
2023/04/23 07:10:52;;;;;;;1.60;1.50;;;;;;;14.45;100.00;97555.41;5067386;28;20238;-76
2023/04/23 07:13:18;;;;;;;1.20;1.10;;;;;;;14.46;100.00;97557.94;5067806;28;20245;-75
2023/04/23 07:15:45;;;;;;;1.00;0.97;;;;;;;14.51;100.00;97544.22;5069404;28;20230;-76
2023/04/23 07:18:11;;;;;;;1.50;1.40;;;;;;;14.66;100.00;97550.75;5070986;28;20711;-77
2023/04/23 07:20:38;;;;;;;2.13;1.53;;;;;;;14.81;100.00;97562.59;5068510;28;20227;-78
2023/04/23 07:23:06;;;;;;;1.90;1.50;;;;;;;14.99;100.00;97558.16;5067613;28;20209;-86
2023/04/23 07:25:32;;;;;;;1.57;1.47;;;;;;;15.17;100.00;97553.75;5067893;28;20804;-78
2023/04/23 07:27:59;;;;;;;1.83;1.70;;;;;;;15.27;100.00;97557.19;5068867;28;20210;-78
2023/04/23 07:30:27;;;;;;;1.93;1.40;;;;;;;15.39;100.00;97548.06;5070037;28;20259;-78
2023/04/23 07:32:54;;;;;;;1.57;1.47;;;;;;;15.51;100.00;97549.53;5070653;28;20203;-78
2023/04/23 07:35:26;;;;;;;2.40;1.30;;;;;;;15.56;100.00;97558.72;5067639;28;20913;-78
2023/04/23 07:37:54;;;;;;;1.77;1.17;;;;;;;15.60;100.00;97546.78;5067862;28;20211;-78
2023/04/23 07:40:23;;;;;;;1.27;1.17;;;;;;;15.55;99.66;97550.88;5066999;28;20263;-78
2023/04/23 07:42:50;;;;;;;1.00;0.90;;;;;;;15.49;98.97;97549.66;5069665;28;20222;-78
2023/04/23 07:45:17;;;;;;;1.20;1.10;;;;;;;15.53;98.07;97544.88;5070421;28;20242;-78
2023/04/23 07:47:45;;;;;;;1.13;0.90;;;;;;;15.49;95.02;97532.84;5067936;28;20822;-78
2023/04/23 07:50:12;;;;;;;0.73;0.73;;;;;;;15.49;91.99;97531.03;5067253;28;20690;-78
2023/04/23 07:52:38;;;;;;;1.03;0.93;;;;;;;15.55;90.66;97524.25;5067857;28;20441;-78
2023/04/23 07:55:05;;;;;;;1.33;0.80;;;;;;;15.64;89.57;97523.34;5069394;28;20235;-78
2023/04/23 07:57:33;;;;;;;0.97;0.90;;;;;;;15.76;88.64;97527.47;5070480;28;20221;-78
2023/04/23 08:00:00;;;;;;;0.70;0.70;;;;;;;15.89;89.24;97530.56;5069139;28;20223;-78
2023/04/23 08:02:27;;;;;;;1.03;0.87;;;;;;;16.06;87.76;97521.72;5070662;28;20214;-78
2023/04/23 08:04:53;;;;;;;1.00;0.90;;;;;;;16.25;86.81;97520.53;5070185;28;20594;-78
2023/04/23 08:07:20;;;;;;;1.23;1.10;;;;;;;16.55;86.61;97512.13;5070191;28;20207;-78
2023/04/23 08:09:48;;;;;;;1.50;1.30;;;;;;;16.84;88.55;97515.28;5069876;28;20217;-78
2023/04/23 08:12:16;;;;;;;2.07;1.40;;;;;;;17.14;87.46;97516.56;5070452;28;20293;-79
2023/04/23 08:14:46;;;;;;;1.42;1.30;;;;;;;17.13;86.10;97510.38;5068637;28;20450;-79
2023/04/23 08:17:12;;;;;;;1.40;1.30;;;;;;;17.02;82.42;97497.31;5068055;28;20222;-79
2023/04/23 08:19:39;;;;;;;2.00;1.13;;;;;;;16.86;80.19;97486.59;5068651;28;20204;-79
2023/04/23 08:22:06;;;;;;;1.50;1.40;;;;;;;16.73;79.84;97482.69;5069209;28;20250;-79
2023/04/23 08:24:32;;;;;;;2.10;1.30;;;;;;;16.66;79.97;97484.31;5068526;28;20231;-79
2023/04/23 08:26:59;;;;;;;1.80;1.70;;;;;;;16.67;78.95;97470.81;5068877;28;20610;-79
2023/04/23 08:29:25;;;;;;;2.37;1.63;;;;;;;16.57;79.09;97480.75;5069688;28;20207;-84
2023/04/23 08:31:53;;;;;;;1.50;1.10;;;;;;;16.51;79.13;97481.41;5069843;28;20207;-85
2023/04/23 08:34:20;;;;;;;1.53;1.30;;;;;;;16.53;78.75;97476.72;5080241;22;20262;-81
2023/04/23 08:36:48;;;;;;;1.47;1.37;;;;;;;16.64;78.33;97479.13;4971663;28;20223;-81
2023/04/23 08:39:14;;;;;;;1.30;1.20;;;;;;;16.71;77.59;97472.16;4972936;28;20278;-84
2023/04/23 08:41:42;;;;;;;1.27;1.10;;;;;;;16.80;77.25;97465.88;4979663;28;20237;-83
2023/04/23 08:44:16;;;;;;;1.80;1.30;;;;;;;16.84;76.16;97466.38;4978800;28;20222;-87
2023/04/23 08:46:46;;;;;;;1.50;1.40;;;;;;;16.96;78.10;97479.25;5073881;28;20256;-85
2023/04/23 08:49:16;;;;;;;2.13;1.57;;;;;;;17.14;78.54;97487.19;5073120;28;20226;-82
2023/04/23 08:51:48;;;;;;;1.80;1.70;;;;;;;17.29;78.28;97481.06;5073875;28;20204;-80
2023/04/23 08:54:18;;;;;;;1.63;1.50;;;;;;;17.37;76.63;97478.44;5074157;28;20552;-86
2023/04/23 08:56:46;;;;;;;1.50;1.40;;;;;;;17.45;73.36;97458.91;5072861;28;20467;-76
2023/04/23 08:59:12;;;;;;;1.87;1.50;;;;;;;17.54;72.12;97461.44;5071387;28;20208;-81
2023/04/23 09:01:40;;;;;;;1.30;1.20;;;;;;;17.67;69.52;97440.41;5070772;28;20231;-82
2023/04/23 09:04:07;;;;;;;1.53;1.43;;;;;;;17.76;68.64;97433.22;5070475;28;20215;-82
2023/04/23 09:06:36;;;;;;;1.43;1.20;;;;;;;17.83;67.38;97436.88;5070741;28;20689;-81
2023/04/23 09:09:03;;;;;;;1.63;1.43;;;;;;;18.08;69.01;97442.06;5071153;28;20215;-82
2023/04/23 09:11:31;;;;;;;1.47;1.37;;;;;;;18.15;64.31;97412.78;5072861;28;20199;-82
2023/04/23 09:13:57;;;;;;;2.03;1.60;;;;;;;18.09;64.62;97414.31;5073101;28;20222;-82
2023/04/23 09:16:24;;;;;;;1.50;1.40;;;;;;;17.94;64.35;97410.66;5073445;28;20243;-82
2023/04/23 09:18:51;;;;;;;1.50;1.40;;;;;;;17.84;65.02;97414.50;5073072;28;20677;-82
2023/04/23 09:21:17;;;;;;;2.50;1.50;;;;;;;17.85;62.54;97392.94;5072572;28;20284;-80
2023/04/23 09:23:45;;;;;;;1.67;1.43;;;;;;;18.02;66.63;97415.16;5073321;28;20705;-85
2023/04/23 09:26:19;;;;;;;2.03;1.90;;;;;;;18.19;67.59;97425.69;5086859;28;20436;-83
2023/04/23 09:28:50;;;;;;;1.83;1.70;;;;;;;18.26;67.51;97410.59;5091398;28;20215;-83
2023/04/23 09:31:20;;;;;;;1.47;1.37;;;;;;;18.34;69.80;97418.63;5091971;28;20198;-83
2023/04/23 09:33:51;;;;;;;1.67;1.57;;;;;;;18.50;71.38;97426.63;5091640;28;20214;-83
2023/04/23 09:36:20;;;;;;;2.23;1.40;;;;;;;18.57;67.20;97408.88;5093281;28;20238;-83
2023/04/23 09:38:48;;;;;;;2.00;1.43;;;;;;;18.77;66.56;97404.75;5092906;28;20207;-83
2023/04/23 09:41:22;;;;;;;2.60;1.20;;;;;;;18.81;63.04;97381.16;5092201;28;20233;-84
2023/04/23 09:43:48;;;;;;;2.70;1.60;;;;;;;18.92;63.20;97381.63;5090893;28;20234;-83
2023/04/23 09:46:15;;;;;;;3.00;1.50;;;;;;;19.09;66.23;97393.88;5091427;28;20230;-83
2023/04/23 09:48:42;;;;;;;1.70;1.60;;;;;;;19.24;65.44;97380.59;5092297;28;20215;-83
2023/04/23 09:51:08;;;;;;;1.60;1.50;;;;;;;19.03;61.49;97351.72;5090586;28;20206;-83
2023/04/23 09:53:41;;;;;;;1.47;1.30;;;;;;;18.75;62.34;97363.13;5091564;28;20210;-82
2023/04/23 09:56:09;;;;;;;1.33;1.23;;;;;;;18.55;62.93;97362.72;5091765;28;20227;-83
2023/04/23 09:58:37;;;;;;;5.73;1.60;;;;;;;18.62;66.57;97379.75;5091170;28;20240;-84
2023/04/23 10:01:07;;;;;;;2.20;1.60;;;;;;;18.81;68.04;97389.19;5091087;28;20230;-81
2023/04/23 10:03:34;;;;;;;1.80;1.70;;;;;;;18.98;69.12;97391.63;5092322;28;20276;-84
2023/04/23 10:06:01;;;;;;;1.70;1.60;;;;;;;19.03;61.89;97335.66;5092260;28;20720;-84
2023/04/23 10:08:28;;;;;;;2.00;1.80;;;;;;;18.95;62.61;97343.75;5092573;28;20301;-85
2023/04/23 10:10:55;;;;;;;1.90;1.70;;;;;;;19.13;67.10;97368.41;5091789;28;20203;-86
2023/04/23 10:13:24;;;;;;;2.37;1.60;;;;;;;19.12;65.37;97364.06;5092425;28;20215;-85
2023/04/23 10:15:51;;;;;;;1.77;1.67;;;;;;;19.00;63.75;97352.09;5092381;28;20227;-88
2023/04/23 10:18:19;;;;;;;2.80;1.50;;;;;;;18.90;60.68;97326.56;5092462;28;20205;-87
2023/04/23 10:20:47;;;;;;;2.90;1.37;;;;;;;18.83;62.20;97334.47;5091481;28;20219;-88
2023/04/23 10:23:14;;;;;;;1.50;1.40;;;;;;;18.67;57.20;97289.06;5092149;28;20673;-87
2023/04/23 10:25:42;;;;;;;2.50;1.40;;;;;;;18.56;58.05;97292.13;5092005;28;20254;-84
2023/04/23 10:28:10;;;;;;;2.27;1.50;;;;;;;18.48;57.85;97292.16;5092131;28;20565;-84
2023/04/23 10:30:39;;;;;;;1.47;1.37;;;;;;;18.67;64.79;97345.28;5091414;28;20302;-84
2023/04/23 10:33:07;;;;;;;1.87;1.70;;;;;;;18.69;65.17;97343.25;5091802;28;20211;-83
2023/04/23 10:35:34;;;;;;;1.60;1.20;;;;;;;18.54;62.90;97326.25;5091918;28;20230;-84
2023/04/23 10:38:01;;;;;;;1.33;1.23;;;;;;;18.44;61.54;97306.91;5092152;28;20209;-84
2023/04/23 10:40:32;;;;;;;2.03;1.37;;;;;;;18.46;58.98;97282.66;5091420;28;20206;-85
2023/04/23 10:43:00;;;;;;;1.50;1.40;;;;;;;18.15;58.21;97274.56;5092021;28;20211;-84
2023/04/23 10:45:30;;;;;;;1.83;1.30;;;;;;;18.36;58.10;97277.50;5091749;28;20227;-82
2023/04/23 10:47:58;;;;;;;1.50;1.40;;;;;;;18.19;57.30;97259.84;5092148;28;20206;-83
2023/04/23 10:50:27;;;;;;;1.83;1.07;;;;;;;18.40;58.05;97269.97;5091365;28;20404;-85
2023/04/23 10:52:55;;;;;;;0.90;0.90;;;;;;;18.47;55.43;97242.31;5091631;28;20289;-83
2023/04/23 10:55:23;;;;;;;1.40;1.07;;;;;;;18.55;54.99;97234.28;5091706;28;20227;-83
2023/04/23 10:58:00;;;;;;;1.10;1.00;;;;;;;18.77;56.86;97260.19;5090420;28;20417;-82
2023/04/23 11:00:28;;;;;;;1.10;1.00;;;;;;;18.97;55.52;97249.84;5090035;28;20206;-83
2023/04/23 11:02:55;;;;;;;2.30;2.10;;;;;;;19.07;53.82;97231.72;5090355;28;20316;-84
2023/04/23 11:05:24;;;;;;;1.50;1.40;;;;;;;19.03;52.57;97217.81;5088733;28;20281;-82
2023/04/23 11:08:05;;;;;;;0.90;0.90;;;;;;;19.31;53.56;97227.00;5088763;28;20215;-84
2023/04/23 11:10:32;;;;;;;1.57;0.83;;;;;;;19.40;55.64;97247.34;5088316;28;20203;-84
2023/04/23 11:13:25;;;;;;;0.80;0.80;;;;;;;19.42;56.16;97249.81;5091438;28;20216;-85
2023/04/23 11:16:18;;;;;;;1.30;0.90;;;;;;;19.51;56.09;97244.19;5091727;28;20230;-82
2023/04/23 11:18:58;;;;;;;1.00;0.90;;;;;;;19.61;56.56;97250.16;5091430;28;20264;-83
2023/04/23 11:22:03;;;;;;;1.03;1.00;;;;;;;19.58;55.24;97234.41;5090615;28;20226;-81
2023/04/23 11:24:32;;;;;;;1.90;1.07;;;;;;;19.54;54.96;97238.50;5091244;28;20257;-81
2023/04/23 11:26:59;;;;;;;1.07;0.90;;;;;;;19.55;57.59;97250.88;5091034;28;20203;-81
2023/04/23 11:29:27;;;;;;;0.90;0.90;;;;;;;19.54;54.98;97233.13;5090276;28;20260;-82
2023/04/23 11:31:55;;;;;;;1.23;0.90;;;;;;;19.47;54.32;97216.13;5091532;28;20199;-81
2023/04/23 11:34:22;;;;;;;0.70;0.70;;;;;;;19.37;55.16;97225.41;5091138;28;20213;-81